Dakar, Sénégal

13:59 GMT le 02 septembre 2014 (GMT +0000)
Ngor Almadies | Change Station
CLOSE
Current Station
Stations météorologiques personnelles
Location: Dakar, DAKAR
Altitude: 46 ft
Stations météo à proximité

Alt. 46 ft 14.74 °N, 17.51 °W | Updated 14 seconds ago

Scattered Clouds
Nuages épars
84.8 ° F
Paraît 95 ° F
N
5.0
Vent Variable Vent de NO
Gusts 11.0 mph

Aujourd'hui
Haut(e) -- | Bas -- ° F
--% Risque de précip.
Hier
Haut(e) -- | Bas -- ° F
Precip. -- pouce
6:57 AM 7:21 PM
Premier quartier, 51% visible
Pression 29.89 pouce
Visibilité 6.2 Miles terrestres
Nuages Nuages épars 700 ft
indice de chaleur 95 ° F
Point de rosée 77 ° F
Humidité 77%
Précipitations 0.00 pouce
Profondeur de la couche neigeuse Non disponible.
UV 10 sur 12
Pollen Non disponible.
Qualité de l'air Non disponible.
Flu Activity Non disponible.
METAR GOOY 021400Z 26008KT 210V310 9999 SCT007 30/25 Q1012 NOSIG

More Conditions Fewer Conditions

Pression 29.89 pouce
Visibilité 6.2 Miles terrestres
Nuages Nuages épars 700 ft
indice de chaleur 95 ° F
Point de rosée 77 ° F
Humidité 77%
Précipitations 0.00 pouce
Profondeur de la couche neigeuse Non disponible.
UV 10 sur 12
Pollen Non disponible.
Qualité de l'air Non disponible.
Flu Activity Non disponible.
METAR GOOY 021400Z 26008KT 210V310 9999 SCT007 30/25 Q1012 NOSIG

More Conditions Fewer Conditions

10-Day Weather Forecast

Almanac

Astronomie

Sep. 02, 2014 Lever Coucher
Temps réel 06:57 GMT 19:21 GMT
Crépuscule civil 06:36 GMT 19:42 GMT
Crépuscule nautique 06:11 GMT 20:08 GMT
Crépuscule astronomique 05:45 GMT 20:33 GMT
Lune 13:25 GMT 00:16 GMT
Durée de lumière visible 13h 06m
Longueur du jour
12h 23m
Tomorrow will be 0m 47s shorter.
Premier quartier, 51% of the Moon is Illuminated
Aujourd'hui
Premier quartier
Sep 8
Pleine lune
Sep 15
Dernier quartier
Sep 24
Nouveau
Oct 1
Premier quartier

Les extrêmes de température d’hier

Country Highs Country Lows

Community

WunderPhotos

Upload Photos

1,749,656 Photos téléchargées !

Nearby

Qualité de l'air

Not available.

Épaisseur de neige

Not available.

Activité sismique

Ville Distance Mag. Time & Date
No recent earthquake activity has been reported nearby.
Minimum magnitude displayed is 2.5.

Températures des eaux côtières

Lieu Température
Aucun rapport de station

Stations météo à proximité